sensor_id;sensor_type;location;lat;lon;timestamp;temperature;humidity
31729;DHT22;18309;43.658;1.312;2023-04-06T00:01:58;11.20;73.80
31729;DHT22;18309;43.658;1.312;2023-04-06T00:04:23;11.20;73.90
31729;DHT22;18309;43.658;1.312;2023-04-06T00:06:49;11.20;74.20
31729;DHT22;18309;43.658;1.312;2023-04-06T00:09:16;11.10;73.90
31729;DHT22;18309;43.658;1.312;2023-04-06T00:11:42;11.00;74.10
31729;DHT22;18309;43.658;1.312;2023-04-06T00:14:07;11.00;74.20
31729;DHT22;18309;43.658;1.312;2023-04-06T00:16:33;10.90;74.50
31729;DHT22;18309;43.658;1.312;2023-04-06T00:18:59;10.90;74.50
31729;DHT22;18309;43.658;1.312;2023-04-06T00:21:25;10.90;74.60
31729;DHT22;18309;43.658;1.312;2023-04-06T00:23:54;10.90;74.40
31729;DHT22;18309;43.658;1.312;2023-04-06T00:26:19;10.90;74.40
31729;DHT22;18309;43.658;1.312;2023-04-06T00:28:46;10.90;74.60
31729;DHT22;18309;43.658;1.312;2023-04-06T00:31:12;10.80;74.00
31729;DHT22;18309;43.658;1.312;2023-04-06T00:33:37;10.80;74.30
31729;DHT22;18309;43.658;1.312;2023-04-06T00:36:05;10.80;74.40
31729;DHT22;18309;43.658;1.312;2023-04-06T00:38:31;10.80;74.40
31729;DHT22;18309;43.658;1.312;2023-04-06T00:40:57;10.80;74.50
31729;DHT22;18309;43.658;1.312;2023-04-06T00:43:23;10.70;74.70
31729;DHT22;18309;43.658;1.312;2023-04-06T00:45:50;10.70;75.20
31729;DHT22;18309;43.658;1.312;2023-04-06T00:48:16;10.60;75.40
31729;DHT22;18309;43.658;1.312;2023-04-06T00:50:42;10.60;75.90
31729;DHT22;18309;43.658;1.312;2023-04-06T00:53:08;10.60;76.10
31729;DHT22;18309;43.658;1.312;2023-04-06T00:55:33;10.50;76.50
31729;DHT22;18309;43.658;1.312;2023-04-06T00:58:01;10.50;76.80
31729;DHT22;18309;43.658;1.312;2023-04-06T01:00:28;10.50;77.70
31729;DHT22;18309;43.658;1.312;2023-04-06T01:02:54;10.50;78.60
31729;DHT22;18309;43.658;1.312;2023-04-06T01:05:20;10.50;79.80
31729;DHT22;18309;43.658;1.312;2023-04-06T01:07:46;10.50;79.70
31729;DHT22;18309;43.658;1.312;2023-04-06T01:10:22;10.50;80.10
31729;DHT22;18309;43.658;1.312;2023-04-06T01:12:48;10.50;80.70
31729;DHT22;18309;43.658;1.312;2023-04-06T01:15:14;10.40;81.40
31729;DHT22;18309;43.658;1.312;2023-04-06T01:17:40;10.40;81.70
31729;DHT22;18309;43.658;1.312;2023-04-06T01:20:07;10.30;82.10
31729;DHT22;18309;43.658;1.312;2023-04-06T01:22:33;10.30;82.30
31729;DHT22;18309;43.658;1.312;2023-04-06T01:24:58;10.20;82.00
31729;DHT22;18309;43.658;1.312;2023-04-06T01:27:24;10.20;82.50
31729;DHT22;18309;43.658;1.312;2023-04-06T01:29:51;10.20;81.70
31729;DHT22;18309;43.658;1.312;2023-04-06T01:32:17;10.20;82.10
31729;DHT22;18309;43.658;1.312;2023-04-06T01:34:43;10.20;81.70
31729;DHT22;18309;43.658;1.312;2023-04-06T01:37:08;10.10;81.80
31729;DHT22;18309;43.658;1.312;2023-04-06T01:39:35;10.10;82.30
31729;DHT22;18309;43.658;1.312;2023-04-06T01:42:01;10.10;82.70
31729;DHT22;18309;43.658;1.312;2023-04-06T01:44:27;10.00;83.00
31729;DHT22;18309;43.658;1.312;2023-04-06T01:46:55;9.90;83.20
31729;DHT22;18309;43.658;1.312;2023-04-06T01:49:22;9.90;83.40
31729;DHT22;18309;43.658;1.312;2023-04-06T01:51:47;9.90;83.40
31729;DHT22;18309;43.658;1.312;2023-04-06T01:54:14;9.90;83.60
31729;DHT22;18309;43.658;1.312;2023-04-06T01:56:41;9.90;83.90
31729;DHT22;18309;43.658;1.312;2023-04-06T01:59:07;9.80;84.30
31729;DHT22;18309;43.658;1.312;2023-04-06T02:01:32;9.80;85.00
31729;DHT22;18309;43.658;1.312;2023-04-06T02:03:58;9.80;85.30
31729;DHT22;18309;43.658;1.312;2023-04-06T02:06:24;9.80;85.20
31729;DHT22;18309;43.658;1.312;2023-04-06T02:08:50;9.80;85.00
31729;DHT22;18309;43.658;1.312;2023-04-06T02:11:16;9.80;85.30
31729;DHT22;18309;43.658;1.312;2023-04-06T02:13:42;9.70;85.70
31729;DHT22;18309;43.658;1.312;2023-04-06T02:16:07;9.70;85.20
31729;DHT22;18309;43.658;1.312;2023-04-06T02:18:33;9.70;85.30
31729;DHT22;18309;43.658;1.312;2023-04-06T02:20:59;9.70;85.50
31729;DHT22;18309;43.658;1.312;2023-04-06T02:23:24;9.60;85.60
31729;DHT22;18309;43.658;1.312;2023-04-06T02:25:50;9.60;85.40
31729;DHT22;18309;43.658;1.312;2023-04-06T02:28:17;9.70;85.50
31729;DHT22;18309;43.658;1.312;2023-04-06T02:30:43;9.60;85.60
31729;DHT22;18309;43.658;1.312;2023-04-06T02:33:09;9.50;86.00
31729;DHT22;18309;43.658;1.312;2023-04-06T02:35:34;9.60;86.40
31729;DHT22;18309;43.658;1.312;2023-04-06T02:38:00;9.50;86.50
31729;DHT22;18309;43.658;1.312;2023-04-06T02:40:26;9.50;86.40
31729;DHT22;18309;43.658;1.312;2023-04-06T02:42:52;9.50;86.40
31729;DHT22;18309;43.658;1.312;2023-04-06T02:45:17;9.50;86.60
31729;DHT22;18309;43.658;1.312;2023-04-06T02:47:43;9.50;86.50
31729;DHT22;18309;43.658;1.312;2023-04-06T02:50:09;9.50;86.60
31729;DHT22;18309;43.658;1.312;2023-04-06T02:52:35;9.60;86.80
31729;DHT22;18309;43.658;1.312;2023-04-06T02:55:01;9.60;86.90
31729;DHT22;18309;43.658;1.312;2023-04-06T02:57:26;9.50;87.20
31729;DHT22;18309;43.658;1.312;2023-04-06T02:59:52;9.50;87.40
31729;DHT22;18309;43.658;1.312;2023-04-06T03:02:18;9.50;87.60
31729;DHT22;18309;43.658;1.312;2023-04-06T03:04:44;9.50;87.70
31729;DHT22;18309;43.658;1.312;2023-04-06T03:07:10;9.50;87.70
31729;DHT22;18309;43.658;1.312;2023-04-06T03:09:39;9.50;88.00
31729;DHT22;18309;43.658;1.312;2023-04-06T03:12:05;9.50;88.20
31729;DHT22;18309;43.658;1.312;2023-04-06T03:14:31;9.50;88.90
31729;DHT22;18309;43.658;1.312;2023-04-06T03:16:56;9.50;89.30
31729;DHT22;18309;43.658;1.312;2023-04-06T03:19:22;9.40;89.00
31729;DHT22;18309;43.658;1.312;2023-04-06T03:21:48;9.40;89.00
31729;DHT22;18309;43.658;1.312;2023-04-06T03:24:13;9.40;89.00
31729;DHT22;18309;43.658;1.312;2023-04-06T03:26:39;9.40;89.20
31729;DHT22;18309;43.658;1.312;2023-04-06T03:29:05;9.40;89.70
31729;DHT22;18309;43.658;1.312;2023-04-06T03:31:31;9.40;90.00
31729;DHT22;18309;43.658;1.312;2023-04-06T03:33:58;9.40;90.00
31729;DHT22;18309;43.658;1.312;2023-04-06T03:36:24;9.40;90.10
31729;DHT22;18309;43.658;1.312;2023-04-06T03:38:52;9.40;90.10
31729;DHT22;18309;43.658;1.312;2023-04-06T03:41:19;9.30;90.20
31729;DHT22;18309;43.658;1.312;2023-04-06T03:43:45;9.40;90.50
31729;DHT22;18309;43.658;1.312;2023-04-06T03:46:11;9.40;90.50
31729;DHT22;18309;43.658;1.312;2023-04-06T03:48:36;9.40;90.80
31729;DHT22;18309;43.658;1.312;2023-04-06T03:51:02;9.40;91.00
31729;DHT22;18309;43.658;1.312;2023-04-06T03:53:28;9.50;91.20
31729;DHT22;18309;43.658;1.312;2023-04-06T03:55:53;9.40;90.70
31729;DHT22;18309;43.658;1.312;2023-04-06T03:58:19;9.50;90.80
31729;DHT22;18309;43.658;1.312;2023-04-06T04:00:45;9.50;90.70
31729;DHT22;18309;43.658;1.312;2023-04-06T04:03:11;9.50;90.60
31729;DHT22;18309;43.658;1.312;2023-04-06T04:05:37;9.40;90.50
31729;DHT22;18309;43.658;1.312;2023-04-06T04:08:03;9.50;90.50
31729;DHT22;18309;43.658;1.312;2023-04-06T04:10:29;9.40;90.50
31729;DHT22;18309;43.658;1.312;2023-04-06T04:12:55;9.50;90.40
31729;DHT22;18309;43.658;1.312;2023-04-06T04:15:21;9.40;90.50
31729;DHT22;18309;43.658;1.312;2023-04-06T04:17:47;9.40;90.70
31729;DHT22;18309;43.658;1.312;2023-04-06T04:20:15;9.40;90.70
31729;DHT22;18309;43.658;1.312;2023-04-06T04:22:42;9.50;90.70
31729;DHT22;18309;43.658;1.312;2023-04-06T04:25:08;9.40;90.70
31729;DHT22;18309;43.658;1.312;2023-04-06T04:27:34;9.40;90.70
31729;DHT22;18309;43.658;1.312;2023-04-06T04:30:02;9.40;90.80
31729;DHT22;18309;43.658;1.312;2023-04-06T04:32:28;9.50;91.00
31729;DHT22;18309;43.658;1.312;2023-04-06T04:34:54;9.50;91.10
31729;DHT22;18309;43.658;1.312;2023-04-06T04:37:20;9.50;91.10
31729;DHT22;18309;43.658;1.312;2023-04-06T04:39:46;9.50;91.20
31729;DHT22;18309;43.658;1.312;2023-04-06T04:42:12;9.50;91.40
31729;DHT22;18309;43.658;1.312;2023-04-06T04:44:38;9.50;91.50
31729;DHT22;18309;43.658;1.312;2023-04-06T04:47:04;9.50;91.50
31729;DHT22;18309;43.658;1.312;2023-04-06T04:49:30;9.50;91.50
31729;DHT22;18309;43.658;1.312;2023-04-06T04:51:57;9.40;91.60
31729;DHT22;18309;43.658;1.312;2023-04-06T04:54:23;9.40;92.10
31729;DHT22;18309;43.658;1.312;2023-04-06T04:56:48;9.40;92.60
31729;DHT22;18309;43.658;1.312;2023-04-06T04:59:14;9.40;92.70
31729;DHT22;18309;43.658;1.312;2023-04-06T05:01:40;9.40;92.80
31729;DHT22;18309;43.658;1.312;2023-04-06T05:04:05;9.40;92.80
31729;DHT22;18309;43.658;1.312;2023-04-06T05:06:31;9.40;92.70
31729;DHT22;18309;43.658;1.312;2023-04-06T05:08:57;9.40;92.70
31729;DHT22;18309;43.658;1.312;2023-04-06T05:11:22;9.40;92.70
31729;DHT22;18309;43.658;1.312;2023-04-06T05:13:48;9.30;92.70
31729;DHT22;18309;43.658;1.312;2023-04-06T05:16:14;9.30;92.60
31729;DHT22;18309;43.658;1.312;2023-04-06T05:18:39;9.30;92.50
31729;DHT22;18309;43.658;1.312;2023-04-06T05:21:05;9.30;92.60
31729;DHT22;18309;43.658;1.312;2023-04-06T05:23:31;9.30;92.60
31729;DHT22;18309;43.658;1.312;2023-04-06T05:25:57;9.30;92.70
31729;DHT22;18309;43.658;1.312;2023-04-06T05:28:23;9.00;93.10
31729;DHT22;18309;43.658;1.312;2023-04-06T05:30:48;8.80;93.60
31729;DHT22;18309;43.658;1.312;2023-04-06T05:33:14;8.60;94.20
31729;DHT22;18309;43.658;1.312;2023-04-06T05:35:40;8.40;94.40
31729;DHT22;18309;43.658;1.312;2023-04-06T05:38:08;8.30;94.50
31729;DHT22;18309;43.658;1.312;2023-04-06T05:40:36;8.20;94.80
31729;DHT22;18309;43.658;1.312;2023-04-06T05:43:03;8.10;94.80
31729;DHT22;18309;43.658;1.312;2023-04-06T05:45:29;8.20;94.90
31729;DHT22;18309;43.658;1.312;2023-04-06T05:47:55;8.10;95.30
31729;DHT22;18309;43.658;1.312;2023-04-06T05:50:21;8.20;95.40
31729;DHT22;18309;43.658;1.312;2023-04-06T05:52:47;8.10;95.50
31729;DHT22;18309;43.658;1.312;2023-04-06T05:55:13;8.20;95.40
31729;DHT22;18309;43.658;1.312;2023-04-06T05:57:39;8.20;95.40
31729;DHT22;18309;43.658;1.312;2023-04-06T06:00:06;8.20;95.60
31729;DHT22;18309;43.658;1.312;2023-04-06T06:02:34;8.20;95.30
31729;DHT22;18309;43.658;1.312;2023-04-06T06:05:00;8.30;94.80
31729;DHT22;18309;43.658;1.312;2023-04-06T06:07:25;8.30;94.80
31729;DHT22;18309;43.658;1.312;2023-04-06T06:09:51;8.20;94.90
31729;DHT22;18309;43.658;1.312;2023-04-06T06:12:17;8.20;95.00
31729;DHT22;18309;43.658;1.312;2023-04-06T06:14:42;8.10;94.80
31729;DHT22;18309;43.658;1.312;2023-04-06T06:17:08;8.00;94.90
31729;DHT22;18309;43.658;1.312;2023-04-06T06:19:34;7.80;94.70
31729;DHT22;18309;43.658;1.312;2023-04-06T06:22:00;7.90;94.50
31729;DHT22;18309;43.658;1.312;2023-04-06T06:24:28;7.80;94.80
31729;DHT22;18309;43.658;1.312;2023-04-06T06:26:54;7.70;95.60
31729;DHT22;18309;43.658;1.312;2023-04-06T06:29:19;8.00;95.90
31729;DHT22;18309;43.658;1.312;2023-04-06T06:31:45;8.10;96.00
31729;DHT22;18309;43.658;1.312;2023-04-06T06:34:11;8.20;96.00
31729;DHT22;18309;43.658;1.312;2023-04-06T06:36:38;8.30;95.70
31729;DHT22;18309;43.658;1.312;2023-04-06T06:39:04;8.20;95.40
31729;DHT22;18309;43.658;1.312;2023-04-06T06:41:29;8.10;95.20
31729;DHT22;18309;43.658;1.312;2023-04-06T06:43:55;8.30;95.60
31729;DHT22;18309;43.658;1.312;2023-04-06T06:46:21;8.30;95.10
31729;DHT22;18309;43.658;1.312;2023-04-06T06:48:47;8.40;95.60
31729;DHT22;18309;43.658;1.312;2023-04-06T06:51:12;8.50;95.30
31729;DHT22;18309;43.658;1.312;2023-04-06T06:53:38;8.40;95.20
31729;DHT22;18309;43.658;1.312;2023-04-06T06:56:04;8.40;95.20
31729;DHT22;18309;43.658;1.312;2023-04-06T06:58:30;8.50;95.50
31729;DHT22;18309;43.658;1.312;2023-04-06T07:00:57;8.50;95.50
31729;DHT22;18309;43.658;1.312;2023-04-06T07:03:22;8.60;95.50
31729;DHT22;18309;43.658;1.312;2023-04-06T07:05:49;8.70;95.50
31729;DHT22;18309;43.658;1.312;2023-04-06T07:08:24;8.60;95.10
31729;DHT22;18309;43.658;1.312;2023-04-06T07:10:51;8.50;94.90
31729;DHT22;18309;43.658;1.312;2023-04-06T07:13:20;8.60;94.60
31729;DHT22;18309;43.658;1.312;2023-04-06T07:15:49;8.80;94.30
31729;DHT22;18309;43.658;1.312;2023-04-06T07:18:15;8.90;94.50
31729;DHT22;18309;43.658;1.312;2023-04-06T07:20:41;9.10;93.80
31729;DHT22;18309;43.658;1.312;2023-04-06T07:23:07;9.20;93.60
31729;DHT22;18309;43.658;1.312;2023-04-06T07:25:32;9.10;94.00
31729;DHT22;18309;43.658;1.312;2023-04-06T07:28:09;9.10;94.40
31729;DHT22;18309;43.658;1.312;2023-04-06T07:30:36;9.10;94.50
31729;DHT22;18309;43.658;1.312;2023-04-06T07:33:02;8.90;95.10
31729;DHT22;18309;43.658;1.312;2023-04-06T07:35:28;9.10;95.50
31729;DHT22;18309;43.658;1.312;2023-04-06T07:37:55;9.10;95.20
31729;DHT22;18309;43.658;1.312;2023-04-06T07:40:21;9.30;94.70
31729;DHT22;18309;43.658;1.312;2023-04-06T07:42:47;9.60;94.70
31729;DHT22;18309;43.658;1.312;2023-04-06T07:45:13;9.60;94.20
31729;DHT22;18309;43.658;1.312;2023-04-06T07:47:39;9.50;94.30
31729;DHT22;18309;43.658;1.312;2023-04-06T07:50:05;9.80;94.40
31729;DHT22;18309;43.658;1.312;2023-04-06T07:52:31;9.90;94.30
31729;DHT22;18309;43.658;1.312;2023-04-06T07:54:58;10.00;94.20
31729;DHT22;18309;43.658;1.312;2023-04-06T07:57:24;10.00;94.10
31729;DHT22;18309;43.658;1.312;2023-04-06T07:59:50;10.10;94.20
31729;DHT22;18309;43.658;1.312;2023-04-06T08:02:16;10.20;93.80
31729;DHT22;18309;43.658;1.312;2023-04-06T08:04:42;10.20;94.10
31729;DHT22;18309;43.658;1.312;2023-04-06T08:07:08;10.20;94.20
31729;DHT22;18309;43.658;1.312;2023-04-06T08:09:33;10.10;94.30
31729;DHT22;18309;43.658;1.312;2023-04-06T08:11:59;10.30;94.40
31729;DHT22;18309;43.658;1.312;2023-04-06T08:14:25;10.60;93.60
31729;DHT22;18309;43.658;1.312;2023-04-06T08:16:51;10.60;93.10
31729;DHT22;18309;43.658;1.312;2023-04-06T08:19:16;10.60;92.90
31729;DHT22;18309;43.658;1.312;2023-04-06T08:21:47;10.70;93.20
31729;DHT22;18309;43.658;1.312;2023-04-06T08:24:13;11.00;92.10
31729;DHT22;18309;43.658;1.312;2023-04-06T08:26:40;11.20;91.30
31729;DHT22;18309;43.658;1.312;2023-04-06T08:29:08;11.30;91.10
31729;DHT22;18309;43.658;1.312;2023-04-06T08:31:34;11.60;90.00
31729;DHT22;18309;43.658;1.312;2023-04-06T08:34:00;11.80;90.20
31729;DHT22;18309;43.658;1.312;2023-04-06T08:36:27;11.80;90.00
31729;DHT22;18309;43.658;1.312;2023-04-06T08:38:53;11.80;88.70
31729;DHT22;18309;43.658;1.312;2023-04-06T08:41:19;11.70;88.20
31729;DHT22;18309;43.658;1.312;2023-04-06T08:43:54;11.80;86.40
31729;DHT22;18309;43.658;1.312;2023-04-06T08:46:22;11.80;88.20
31729;DHT22;18309;43.658;1.312;2023-04-06T08:48:48;12.00;88.50
31729;DHT22;18309;43.658;1.312;2023-04-06T08:51:15;12.20;87.70
31729;DHT22;18309;43.658;1.312;2023-04-06T08:53:42;12.30;87.20
31729;DHT22;18309;43.658;1.312;2023-04-06T08:56:09;12.40;86.60
31729;DHT22;18309;43.658;1.312;2023-04-06T08:58:38;12.20;85.00
31729;DHT22;18309;43.658;1.312;2023-04-06T09:01:11;12.40;84.20
31729;DHT22;18309;43.658;1.312;2023-04-06T09:03:39;12.40;84.10
31729;DHT22;18309;43.658;1.312;2023-04-06T09:06:08;12.50;84.50
31729;DHT22;18309;43.658;1.312;2023-04-06T09:08:35;12.40;84.40
31729;DHT22;18309;43.658;1.312;2023-04-06T09:11:02;12.60;85.00
31729;DHT22;18309;43.658;1.312;2023-04-06T09:13:29;12.90;84.70
31729;DHT22;18309;43.658;1.312;2023-04-06T09:16:01;13.00;84.20
31729;DHT22;18309;43.658;1.312;2023-04-06T09:18:29;13.30;84.00
31729;DHT22;18309;43.658;1.312;2023-04-06T09:21:04;13.10;84.20
31729;DHT22;18309;43.658;1.312;2023-04-06T09:23:30;13.30;83.70
31729;DHT22;18309;43.658;1.312;2023-04-06T09:26:16;13.50;83.90
31729;DHT22;18309;43.658;1.312;2023-04-06T09:28:54;14.00;82.00
31729;DHT22;18309;43.658;1.312;2023-04-06T09:31:46;14.10;82.50
31729;DHT22;18309;43.658;1.312;2023-04-06T09:34:21;13.90;82.50
31729;DHT22;18309;43.658;1.312;2023-04-06T09:36:48;14.00;82.20
31729;DHT22;18309;43.658;1.312;2023-04-06T09:39:14;14.30;81.60
31729;DHT22;18309;43.658;1.312;2023-04-06T09:41:40;14.40;81.70
31729;DHT22;18309;43.658;1.312;2023-04-06T09:44:06;14.30;82.10
31729;DHT22;18309;43.658;1.312;2023-04-06T09:46:34;14.60;80.80
31729;DHT22;18309;43.658;1.312;2023-04-06T09:49:04;14.80;80.40
31729;DHT22;18309;43.658;1.312;2023-04-06T09:51:32;14.50;80.40
31729;DHT22;18309;43.658;1.312;2023-04-06T09:54:01;14.70;82.90
31729;DHT22;18309;43.658;1.312;2023-04-06T09:56:51;14.30;81.90
31729;DHT22;18309;43.658;1.312;2023-04-06T10:01:55;14.20;80.50
31729;DHT22;18309;43.658;1.312;2023-04-06T10:04:49;14.30;81.70
31729;DHT22;18309;43.658;1.312;2023-04-06T10:07:18;14.20;80.90
31729;DHT22;18309;43.658;1.312;2023-04-06T10:09:45;14.00;81.60
31729;DHT22;18309;43.658;1.312;2023-04-06T10:12:12;13.40;81.10
31729;DHT22;18309;43.658;1.312;2023-04-06T10:14:39;13.00;83.70
31729;DHT22;18309;43.658;1.312;2023-04-06T10:17:06;13.20;83.10
31729;DHT22;18309;43.658;1.312;2023-04-06T10:22:15;13.20;83.20
31729;DHT22;18309;43.658;1.312;2023-04-06T10:24:43;13.10;84.10
31729;DHT22;18309;43.658;1.312;2023-04-06T10:27:09;13.20;82.70
31729;DHT22;18309;43.658;1.312;2023-04-06T10:29:44;13.30;81.30
31729;DHT22;18309;43.658;1.312;2023-04-06T10:32:11;13.40;82.40
31729;DHT22;18309;43.658;1.312;2023-04-06T10:34:37;13.50;80.70
31729;DHT22;18309;43.658;1.312;2023-04-06T10:37:16;13.80;83.20
31729;DHT22;18309;43.658;1.312;2023-04-06T10:39:52;13.80;79.60
31729;DHT22;18309;43.658;1.312;2023-04-06T10:42:36;13.80;78.80
31729;DHT22;18309;43.658;1.312;2023-04-06T10:45:06;13.70;78.90
31729;DHT22;18309;43.658;1.312;2023-04-06T10:47:40;13.90;79.80
31729;DHT22;18309;43.658;1.312;2023-04-06T10:50:06;13.90;78.40
31729;DHT22;18309;43.658;1.312;2023-04-06T10:52:32;14.10;78.80
31729;DHT22;18309;43.658;1.312;2023-04-06T10:54:57;14.10;77.60
31729;DHT22;18309;43.658;1.312;2023-04-06T10:57:30;14.20;77.60
31729;DHT22;18309;43.658;1.312;2023-04-06T10:59:58;14.10;76.70
31729;DHT22;18309;43.658;1.312;2023-04-06T11:02:23;14.20;77.30
31729;DHT22;18309;43.658;1.312;2023-04-06T11:04:58;14.40;78.00
31729;DHT22;18309;43.658;1.312;2023-04-06T11:07:28;14.20;76.40
31729;DHT22;18309;43.658;1.312;2023-04-06T11:09:55;14.30;78.50
31729;DHT22;18309;43.658;1.312;2023-04-06T11:12:25;14.40;72.00
31729;DHT22;18309;43.658;1.312;2023-04-06T11:15:00;14.30;70.60
31729;DHT22;18309;43.658;1.312;2023-04-06T11:17:35;14.30;69.60
31729;DHT22;18309;43.658;1.312;2023-04-06T11:20:02;14.40;71.90
31729;DHT22;18309;43.658;1.312;2023-04-06T11:22:29;14.50;70.90
31729;DHT22;18309;43.658;1.312;2023-04-06T11:25:08;14.70;71.50
31729;DHT22;18309;43.658;1.312;2023-04-06T11:27:34;14.80;71.40
31729;DHT22;18309;43.658;1.312;2023-04-06T11:30:03;14.80;73.30
31729;DHT22;18309;43.658;1.312;2023-04-06T11:32:42;14.90;73.90
31729;DHT22;18309;43.658;1.312;2023-04-06T11:35:22;14.80;71.90
31729;DHT22;18309;43.658;1.312;2023-04-06T11:37:51;14.80;70.00
31729;DHT22;18309;43.658;1.312;2023-04-06T11:40:21;15.00;69.60
31729;DHT22;18309;43.658;1.312;2023-04-06T11:42:57;15.20;68.80
31729;DHT22;18309;43.658;1.312;2023-04-06T11:45:23;15.10;67.40
31729;DHT22;18309;43.658;1.312;2023-04-06T11:47:59;15.20;68.50
31729;DHT22;18309;43.658;1.312;2023-04-06T11:50:25;15.30;63.70
31729;DHT22;18309;43.658;1.312;2023-04-06T11:53:01;15.50;64.00
31729;DHT22;18309;43.658;1.312;2023-04-06T11:55:27;15.50;64.20
31729;DHT22;18309;43.658;1.312;2023-04-06T11:57:52;15.60;62.00
31729;DHT22;18309;43.658;1.312;2023-04-06T12:00:19;15.70;62.70
31729;DHT22;18309;43.658;1.312;2023-04-06T12:02:47;15.80;62.20
31729;DHT22;18309;43.658;1.312;2023-04-06T12:05:13;15.60;60.90
31729;DHT22;18309;43.658;1.312;2023-04-06T12:07:39;15.80;60.50
31729;DHT22;18309;43.658;1.312;2023-04-06T12:10:05;15.60;59.30
31729;DHT22;18309;43.658;1.312;2023-04-06T12:12:30;15.80;60.70
31729;DHT22;18309;43.658;1.312;2023-04-06T12:14:57;16.00;63.90
31729;DHT22;18309;43.658;1.312;2023-04-06T12:17:23;15.90;62.80
31729;DHT22;18309;43.658;1.312;2023-04-06T12:19:49;15.90;64.40
31729;DHT22;18309;43.658;1.312;2023-04-06T12:22:15;15.80;64.00
31729;DHT22;18309;43.658;1.312;2023-04-06T12:24:41;15.90;64.00
31729;DHT22;18309;43.658;1.312;2023-04-06T12:27:07;16.00;64.70
31729;DHT22;18309;43.658;1.312;2023-04-06T12:29:34;16.20;61.80
31729;DHT22;18309;43.658;1.312;2023-04-06T12:32:00;16.30;64.10
31729;DHT22;18309;43.658;1.312;2023-04-06T12:34:26;16.40;61.90
31729;DHT22;18309;43.658;1.312;2023-04-06T12:36:52;16.60;61.60
31729;DHT22;18309;43.658;1.312;2023-04-06T12:39:19;16.70;59.70
31729;DHT22;18309;43.658;1.312;2023-04-06T12:41:45;17.40;59.50
31729;DHT22;18309;43.658;1.312;2023-04-06T12:44:11;22.50;52.30
31729;DHT22;18309;43.658;1.312;2023-04-06T12:46:38;27.20;46.40
31729;DHT22;18309;43.658;1.312;2023-04-06T12:49:03;31.50;41.70
31729;DHT22;18309;43.658;1.312;2023-04-06T12:51:30;31.90;39.20
31729;DHT22;18309;43.658;1.312;2023-04-06T12:53:56;32.50;39.20
31729;DHT22;18309;43.658;1.312;2023-04-06T12:56:22;33.50;36.30
31729;DHT22;18309;43.658;1.312;2023-04-06T12:58:51;35.20;33.50
31729;DHT22;18309;43.658;1.312;2023-04-06T13:01:17;35.10;31.80
31729;DHT22;18309;43.658;1.312;2023-04-06T13:03:43;35.60;30.80
31729;DHT22;18309;43.658;1.312;2023-04-06T13:06:09;34.80;32.60
31729;DHT22;18309;43.658;1.312;2023-04-06T13:08:35;36.50;31.40
31729;DHT22;18309;43.658;1.312;2023-04-06T13:11:02;38.10;29.40
31729;DHT22;18309;43.658;1.312;2023-04-06T13:13:29;40.00;28.20
31729;DHT22;18309;43.658;1.312;2023-04-06T13:16:03;39.70;28.60
31729;DHT22;18309;43.658;1.312;2023-04-06T13:18:30;40.70;28.20
31729;DHT22;18309;43.658;1.312;2023-04-06T13:20:57;42.40;27.50
31729;DHT22;18309;43.658;1.312;2023-04-06T13:23:23;38.90;28.40
31729;DHT22;18309;43.658;1.312;2023-04-06T13:26:01;39.40;29.40
31729;DHT22;18309;43.658;1.312;2023-04-06T13:28:28;41.10;27.50
31729;DHT22;18309;43.658;1.312;2023-04-06T13:30:55;42.10;27.80
31729;DHT22;18309;43.658;1.312;2023-04-06T13:33:21;40.20;27.80
31729;DHT22;18309;43.658;1.312;2023-04-06T13:35:47;39.20;27.90
31729;DHT22;18309;43.658;1.312;2023-04-06T13:38:13;41.40;26.90
31729;DHT22;18309;43.658;1.312;2023-04-06T13:40:40;43.40;25.40
31729;DHT22;18309;43.658;1.312;2023-04-06T13:43:06;42.20;25.80
31729;DHT22;18309;43.658;1.312;2023-04-06T13:45:32;42.90;25.30
31729;DHT22;18309;43.658;1.312;2023-04-06T13:47:58;39.50;31.30
31729;DHT22;18309;43.658;1.312;2023-04-06T13:50:27;36.30;31.50
31729;DHT22;18309;43.658;1.312;2023-04-06T13:52:55;34.00;33.00
31729;DHT22;18309;43.658;1.312;2023-04-06T13:55:21;32.40;33.80
31729;DHT22;18309;43.658;1.312;2023-04-06T13:57:51;31.20;34.50
31729;DHT22;18309;43.658;1.312;2023-04-06T14:00:17;30.30;34.20
31729;DHT22;18309;43.658;1.312;2023-04-06T14:02:43;29.70;35.90
31729;DHT22;18309;43.658;1.312;2023-04-06T14:05:10;29.10;36.30
31729;DHT22;18309;43.658;1.312;2023-04-06T14:07:36;28.60;37.90
31729;DHT22;18309;43.658;1.312;2023-04-06T14:10:04;28.30;38.40
31729;DHT22;18309;43.658;1.312;2023-04-06T14:12:32;28.00;38.80
31729;DHT22;18309;43.658;1.312;2023-04-06T14:14:57;27.60;39.20
31729;DHT22;18309;43.658;1.312;2023-04-06T14:17:23;27.50;40.30
31729;DHT22;18309;43.658;1.312;2023-04-06T14:19:49;27.40;41.40
31729;DHT22;18309;43.658;1.312;2023-04-06T14:22:14;27.20;41.90
31729;DHT22;18309;43.658;1.312;2023-04-06T14:24:40;27.10;43.10
31729;DHT22;18309;43.658;1.312;2023-04-06T14:27:06;27.00;41.90
31729;DHT22;18309;43.658;1.312;2023-04-06T14:29:32;26.80;41.90
31729;DHT22;18309;43.658;1.312;2023-04-06T14:31:58;26.80;42.00
31729;DHT22;18309;43.658;1.312;2023-04-06T14:34:26;26.70;42.50
31729;DHT22;18309;43.658;1.312;2023-04-06T14:36:52;26.60;42.40
31729;DHT22;18309;43.658;1.312;2023-04-06T14:39:17;26.50;43.60
31729;DHT22;18309;43.658;1.312;2023-04-06T14:41:44;26.50;41.20
31729;DHT22;18309;43.658;1.312;2023-04-06T14:44:10;26.40;41.10
31729;DHT22;18309;43.658;1.312;2023-04-06T14:46:37;26.40;42.40
31729;DHT22;18309;43.658;1.312;2023-04-06T14:49:03;26.40;43.90
31729;DHT22;18309;43.658;1.312;2023-04-06T14:51:29;26.30;44.40
31729;DHT22;18309;43.658;1.312;2023-04-06T14:53:55;26.30;44.10
31729;DHT22;18309;43.658;1.312;2023-04-06T14:56:22;26.30;41.80
31729;DHT22;18309;43.658;1.312;2023-04-06T14:58:49;26.30;41.10
31729;DHT22;18309;43.658;1.312;2023-04-06T15:01:18;26.30;40.40
31729;DHT22;18309;43.658;1.312;2023-04-06T15:03:43;26.30;45.90
31729;DHT22;18309;43.658;1.312;2023-04-06T15:06:14;26.30;40.20
31729;DHT22;18309;43.658;1.312;2023-04-06T15:08:45;26.30;42.90
31729;DHT22;18309;43.658;1.312;2023-04-06T15:11:11;26.40;43.60
31729;DHT22;18309;43.658;1.312;2023-04-06T15:13:39;26.40;46.50
31729;DHT22;18309;43.658;1.312;2023-04-06T15:16:06;26.40;42.60
31729;DHT22;18309;43.658;1.312;2023-04-06T15:18:32;26.40;45.80
31729;DHT22;18309;43.658;1.312;2023-04-06T15:20:58;26.40;44.10
31729;DHT22;18309;43.658;1.312;2023-04-06T15:23:24;26.50;40.30
31729;DHT22;18309;43.658;1.312;2023-04-06T15:25:50;26.50;40.60
31729;DHT22;18309;43.658;1.312;2023-04-06T15:28:17;26.50;47.90
31729;DHT22;18309;43.658;1.312;2023-04-06T15:30:42;26.50;47.50
31729;DHT22;18309;43.658;1.312;2023-04-06T15:33:08;26.50;49.20
31729;DHT22;18309;43.658;1.312;2023-04-06T15:35:34;26.50;46.40
31729;DHT22;18309;43.658;1.312;2023-04-06T15:38:05;26.60;48.00
31729;DHT22;18309;43.658;1.312;2023-04-06T15:40:32;26.60;43.80
31729;DHT22;18309;43.658;1.312;2023-04-06T15:42:57;26.60;43.20